createdAt,value
2022-09-28T00:01:44.548Z,4.32
2022-09-28T00:04:12.096Z,4.32
2022-09-28T00:06:39.239Z,4.03
2022-09-28T00:09:05.679Z,4.13
2022-09-28T00:11:33.205Z,4.50
2022-09-28T00:14:03.337Z,4.25
2022-09-28T00:16:32.844Z,4.80
2022-09-28T00:18:59.781Z,4.50
2022-09-28T00:21:31.767Z,4.72
2022-09-28T00:24:12.479Z,4.30
2022-09-28T00:26:41.894Z,4.10
2022-09-28T00:29:16.287Z,4.18
2022-09-28T00:31:43.160Z,3.50
2022-09-28T00:34:09.691Z,4.30
2022-09-28T00:36:36.693Z,4.53
2022-09-28T00:39:06.787Z,4.55
2022-09-28T00:41:34.407Z,4.95
2022-09-28T00:44:43.746Z,4.50
2022-09-28T00:47:37.855Z,4.75
2022-09-28T00:50:11.047Z,4.45
2022-09-28T00:52:47.822Z,4.55
2022-09-28T00:55:21.812Z,4.20
2022-09-28T00:57:55.117Z,4.57
2022-09-28T01:00:22.284Z,5.03
2022-09-28T01:02:48.999Z,4.38
2022-09-28T01:05:18.213Z,4.50
2022-09-28T01:07:46.469Z,4.40
2022-09-28T01:10:14.055Z,4.97
2022-09-28T01:12:40.761Z,4.55
2022-09-28T01:15:08.216Z,4.95
2022-09-28T01:17:56.716Z,4.88
2022-09-28T01:20:52.761Z,4.28
2022-09-28T01:23:53.167Z,5.07
2022-09-28T01:26:22.472Z,4.40
2022-09-28T01:28:55.435Z,4.30
2022-09-28T01:31:28.332Z,5.13
2022-09-28T01:34:08.666Z,4.05
2022-09-28T01:36:44.030Z,4.50
2022-09-28T01:41:47.853Z,5.20
2022-09-28T01:44:17.658Z,4.88
2022-09-28T01:46:48.105Z,4.80
2022-09-28T01:49:35.703Z,4.78
2022-09-28T01:52:15.682Z,5.35
2022-09-28T01:54:55.993Z,6.28
2022-09-28T01:57:44.040Z,5.55
2022-09-28T02:00:14.676Z,5.50
2022-09-28T02:02:48.447Z,5.97
2022-09-28T02:05:29.284Z,5.13
2022-09-28T02:08:15.861Z,5.50
2022-09-28T02:10:49.968Z,5.97
2022-09-28T02:13:21.996Z,5.05
2022-09-28T02:15:56.142Z,5.63
2022-09-28T02:18:24.604Z,6.07
2022-09-28T02:20:59.003Z,6.25
2022-09-28T02:23:30.969Z,6.03
2022-09-28T02:26:03.401Z,6.05
2022-09-28T02:28:30.669Z,5.32
2022-09-28T02:30:57.249Z,5.63
2022-09-28T02:33:32.000Z,5.13
2022-09-28T02:36:00.477Z,5.32
2022-09-28T02:38:29.099Z,5.85
2022-09-28T02:41:21.561Z,5.50
2022-09-28T02:44:16.047Z,5.45
2022-09-28T02:47:04.137Z,5.65
2022-09-28T02:49:52.104Z,5.82
2022-09-28T02:52:42.098Z,5.03
2022-09-28T02:55:19.952Z,6.45
2022-09-28T02:58:17.998Z,5.93
2022-09-28T03:00:55.762Z,5.65
2022-09-28T03:03:32.749Z,5.50
2022-09-28T03:06:32.384Z,6.28
2022-09-28T03:09:12.502Z,5.65
2022-09-28T03:11:46.828Z,6.65
2022-09-28T03:14:14.774Z,6.25
2022-09-28T03:16:50.198Z,6.70
2022-09-28T03:19:21.998Z,6.65
2022-09-28T03:21:49.239Z,5.63
2022-09-28T03:24:15.708Z,6.75
2022-09-28T03:26:42.142Z,6.47
2022-09-28T03:29:09.944Z,6.60
2022-09-28T03:31:37.873Z,6.10
2022-09-28T03:34:04.491Z,6.40
2022-09-28T03:36:31.328Z,7.07
2022-09-28T03:38:59.404Z,7.00
2022-09-28T03:41:29.730Z,6.50
2022-09-28T03:43:56.179Z,6.72
2022-09-28T03:46:25.072Z,6.35
2022-09-28T03:48:57.184Z,6.13
2022-09-28T03:51:23.856Z,6.90
2022-09-28T03:53:50.307Z,7.70
2022-09-28T03:56:17.347Z,7.60
2022-09-28T03:58:43.805Z,9.23
2022-09-28T04:01:16.797Z,8.68
2022-09-28T04:03:46.268Z,8.70
2022-09-28T04:06:13.628Z,7.78
2022-09-28T04:08:40.283Z,7.68
2022-09-28T04:11:06.743Z,7.53
2022-09-28T04:13:33.623Z,7.28
2022-09-28T04:16:01.465Z,7.53
2022-09-28T04:18:32.672Z,6.78
2022-09-28T04:21:15.302Z,7.78
2022-09-28T04:23:48.889Z,7.90
2022-09-28T04:26:19.551Z,7.50
2022-09-28T04:29:07.109Z,8.23
2022-09-28T04:31:46.528Z,8.82
2022-09-28T04:34:17.352Z,9.00
2022-09-28T04:36:44.943Z,8.55
2022-09-28T04:39:12.470Z,9.43
2022-09-28T04:41:40.571Z,9.13
2022-09-28T04:44:07.787Z,10.15
2022-09-28T04:46:34.761Z,9.98
2022-09-28T04:49:19.694Z,9.48
2022-09-28T04:51:51.534Z,9.40
2022-09-28T04:54:18.575Z,9.43
2022-09-28T04:56:45.397Z,8.93
2022-09-28T04:59:13.331Z,9.43
2022-09-28T05:01:41.012Z,9.77
2022-09-28T05:04:26.037Z,8.98
2022-09-28T05:07:31.174Z,8.77
2022-09-28T05:10:00.572Z,9.52
2022-09-28T05:12:27.431Z,9.73
2022-09-28T05:14:54.015Z,9.50
2022-09-28T05:17:20.498Z,10.85
2022-09-28T05:20:07.747Z,13.23
2022-09-28T05:22:34.412Z,15.02
2022-09-28T05:25:02.765Z,16.58
2022-09-28T05:27:35.407Z,18.73
2022-09-28T05:30:08.715Z,18.23
2022-09-28T05:33:05.553Z,17.42
2022-09-28T05:35:41.497Z,17.38
2022-09-28T05:38:08.012Z,18.08
2022-09-28T05:40:34.533Z,17.75
2022-09-28T05:43:02.746Z,18.55
2022-09-28T05:45:29.623Z,17.50
2022-09-28T05:47:56.596Z,18.48
2022-09-28T05:50:24.136Z,18.77
2022-09-28T05:53:01.824Z,20.23
2022-09-28T05:55:28.802Z,21.08
2022-09-28T05:58:04.338Z,21.17
2022-09-28T06:00:32.236Z,20.35
2022-09-28T06:03:08.725Z,19.50
2022-09-28T06:05:36.865Z,18.60
2022-09-28T06:08:05.207Z,19.45
2022-09-28T06:10:33.220Z,18.40
2022-09-28T06:13:01.437Z,20.45
2022-09-28T06:15:30.011Z,19.65
2022-09-28T06:18:03.281Z,19.63
2022-09-28T06:20:40.935Z,19.30
2022-09-28T06:23:15.371Z,21.77
2022-09-28T06:25:42.556Z,22.52
2022-09-28T06:28:14.262Z,22.33
2022-09-28T06:30:42.329Z,22.63
2022-09-28T06:33:14.283Z,22.30
2022-09-28T06:35:42.129Z,22.50
2022-09-28T06:38:09.167Z,19.55
2022-09-28T06:40:36.254Z,18.77
2022-09-28T06:43:10.488Z,18.20
2022-09-28T06:45:56.095Z,18.23
2022-09-28T06:48:44.177Z,18.58
2022-09-28T06:51:14.921Z,18.48
2022-09-28T06:53:56.802Z,17.52
2022-09-28T06:56:53.033Z,18.88
2022-09-28T06:59:20.284Z,18.60
2022-09-28T07:01:46.989Z,17.08
2022-09-28T07:04:27.519Z,18.30
2022-09-28T07:07:31.269Z,17.50
2022-09-28T07:10:10.202Z,16.65
2022-09-28T07:13:06.998Z,16.20
2022-09-28T07:15:43.204Z,16.98
2022-09-28T07:18:12.588Z,17.23
2022-09-28T07:20:52.248Z,16.75
2022-09-28T07:23:20.727Z,16.45
2022-09-28T07:26:10.169Z,15.40
2022-09-28T07:28:43.932Z,15.57
2022-09-28T07:31:32.153Z,15.98
2022-09-28T07:34:37.804Z,14.65
2022-09-28T07:37:11.639Z,14.32
2022-09-28T07:39:57.013Z,14.50
2022-09-28T07:42:25.198Z,15.68
2022-09-28T07:44:52.167Z,15.80
2022-09-28T07:47:29.622Z,15.60
2022-09-28T07:50:17.960Z,15.23
2022-09-28T07:53:00.415Z,15.95
2022-09-28T07:55:30.495Z,15.70
2022-09-28T07:58:32.894Z,15.02
2022-09-28T08:01:14.802Z,16.60
2022-09-28T08:03:45.238Z,14.95
2022-09-28T08:06:14.381Z,15.27
2022-09-28T08:08:43.749Z,15.48
2022-09-28T08:11:17.610Z,15.05
2022-09-28T08:14:02.366Z,14.60
2022-09-28T08:16:53.764Z,15.02
2022-09-28T08:19:57.343Z,13.32
2022-09-28T08:22:23.895Z,13.85
2022-09-28T08:24:53.309Z,14.07
2022-09-28T08:27:19.969Z,18.58
2022-09-28T08:29:46.504Z,19.42
2022-09-28T08:32:32.680Z,20.17
2022-09-28T08:35:18.023Z,19.83
2022-09-28T08:37:57.708Z,18.40
2022-09-28T08:41:13.484Z,18.23
2022-09-28T08:44:00.741Z,18.63
2022-09-28T08:47:01.107Z,17.92
2022-09-28T08:49:50.360Z,17.42
2022-09-28T08:52:39.854Z,16.50
2022-09-28T08:55:37.776Z,17.55
2022-09-28T08:58:22.401Z,16.27
2022-09-28T09:00:51.123Z,16.67
2022-09-28T09:03:39.652Z,20.27
2022-09-28T09:06:49.853Z,13.80
2022-09-28T09:10:11.575Z,13.43
2022-09-28T09:12:47.668Z,13.23
2022-09-28T09:15:39.062Z,14.02
2022-09-28T09:18:41.080Z,13.20
2022-09-28T09:21:50.364Z,14.38
2022-09-28T09:24:30.398Z,13.77
2022-09-28T09:27:11.851Z,14.57
2022-09-28T09:29:41.476Z,13.70
2022-09-28T09:32:32.005Z,13.65
2022-09-28T09:35:26.413Z,14.32
2022-09-28T09:38:50.891Z,14.65
2022-09-28T09:42:01.189Z,12.18
2022-09-28T09:45:07.780Z,13.68
2022-09-28T09:48:03.679Z,12.90
2022-09-28T09:53:22.291Z,13.95
2022-09-28T09:55:57.162Z,13.50
2022-09-28T09:58:33.937Z,12.65
2022-09-28T10:01:11.266Z,13.48
2022-09-28T10:03:58.804Z,12.45
2022-09-28T10:06:33.130Z,13.00
2022-09-28T10:09:12.869Z,12.70
2022-09-28T10:11:46.740Z,12.98
2022-09-28T10:14:21.412Z,13.10
2022-09-28T10:16:57.789Z,12.07
2022-09-28T10:20:04.044Z,12.30
2022-09-28T10:22:51.354Z,12.32
2022-09-28T10:25:19.813Z,13.85
2022-09-28T10:27:49.520Z,12.70
2022-09-28T10:30:20.282Z,11.68
2022-09-28T10:32:49.673Z,11.00
2022-09-28T10:35:28.968Z,11.60
2022-09-28T10:38:16.762Z,12.37
2022-09-28T10:40:59.189Z,10.85
2022-09-28T10:44:06.495Z,9.95
2022-09-28T10:47:00.714Z,7.85
2022-09-28T10:49:43.204Z,7.22
2022-09-28T10:52:32.191Z,3.92
2022-09-28T10:55:00.360Z,4.20
2022-09-28T10:57:33.078Z,3.97
2022-09-28T11:00:06.916Z,4.03
2022-09-28T11:02:40.866Z,3.15
2022-09-28T11:05:22.714Z,3.33
2022-09-28T11:07:52.597Z,3.95
2022-09-28T11:10:29.135Z,3.42
2022-09-28T11:13:01.502Z,3.03
2022-09-28T11:15:33.338Z,3.88
2022-09-28T11:18:20.314Z,3.42
2022-09-28T11:20:46.849Z,3.65
2022-09-28T11:23:29.986Z,3.95
2022-09-28T11:26:07.363Z,3.47
2022-09-28T11:28:37.412Z,3.22
2022-09-28T11:31:11.742Z,2.92
2022-09-28T11:34:14.149Z,3.33
2022-09-28T11:37:12.644Z,3.70
2022-09-28T11:39:58.959Z,3.30
2022-09-28T11:42:35.377Z,2.55
2022-09-28T11:45:22.747Z,3.03
2022-09-28T11:47:55.583Z,2.80
2022-09-28T11:50:32.328Z,3.00
2022-09-28T11:53:20.331Z,2.28
2022-09-28T11:56:09.078Z,2.58
2022-09-28T11:58:47.022Z,2.65
2022-09-28T12:01:23.467Z,1.70
2022-09-28T12:04:21.231Z,1.65
2022-09-28T12:07:11.279Z,2.00
2022-09-28T12:09:55.293Z,1.65
2022-09-28T12:12:30.505Z,1.55
2022-09-28T12:15:04.380Z,1.20
2022-09-28T12:17:38.779Z,1.20
2022-09-28T12:20:46.326Z,1.67
2022-09-28T12:23:24.160Z,1.85
2022-09-28T12:25:59.300Z,2.10
2022-09-28T12:31:02.983Z,1.30
2022-09-28T12:33:29.506Z,2.10
2022-09-28T12:36:26.127Z,3.53
2022-09-28T12:39:17.991Z,1.90
2022-09-28T12:42:11.923Z,2.45
2022-09-28T12:44:59.292Z,1.52
2022-09-28T12:47:41.647Z,1.00
2022-09-28T12:50:39.043Z,1.25
2022-09-28T12:53:27.496Z,2.00
2022-09-28T12:56:01.530Z,1.42
2022-09-28T12:58:48.811Z,1.63
2022-09-28T13:01:37.233Z,1.50
2022-09-28T13:04:38.210Z,1.15
2022-09-28T13:07:38.963Z,1.05
2022-09-28T13:10:33.128Z,0.82
2022-09-28T13:13:16.998Z,1.38
2022-09-28T13:15:53.725Z,4.93
2022-09-28T13:18:35.287Z,1.23
2022-09-28T13:21:28.183Z,1.58
2022-09-28T13:24:14.330Z,1.65
2022-09-28T13:26:45.528Z,0.55
2022-09-28T13:29:15.523Z,1.77
2022-09-28T13:32:03.175Z,1.10
2022-09-28T13:34:33.295Z,2.10
2022-09-28T13:37:18.773Z,2.20
2022-09-28T13:39:45.168Z,1.00
2022-09-28T13:42:22.828Z,0.85
2022-09-28T13:45:04.835Z,1.13
2022-09-28T13:47:59.135Z,1.30
2022-09-28T13:50:25.701Z,1.13
2022-09-28T13:53:16.743Z,1.00
2022-09-28T13:55:58.346Z,0.75
2022-09-28T13:58:32.987Z,0.80
2022-09-28T14:01:14.155Z,1.00
2022-09-28T14:04:15.564Z,0.80
2022-09-28T14:06:48.140Z,0.63
2022-09-28T14:09:43.859Z,0.65
2022-09-28T14:12:34.978Z,0.90
2022-09-28T14:15:06.399Z,1.05
2022-09-28T14:17:32.866Z,0.90
2022-09-28T14:20:04.494Z,0.90
2022-09-28T14:22:41.380Z,1.38
2022-09-28T14:25:17.487Z,0.80
2022-09-28T14:28:23.166Z,0.93
2022-09-28T14:30:53.465Z,1.10
2022-09-28T14:33:33.351Z,0.73
2022-09-28T14:36:04.651Z,1.10
2022-09-28T14:38:53.532Z,1.00
2022-09-28T14:41:36.282Z,0.73
2022-09-28T14:44:11.268Z,0.73
2022-09-28T14:49:31.997Z,0.85
2022-09-28T14:52:02.872Z,0.90
2022-09-28T14:54:43.033Z,1.45
2022-09-28T14:57:21.665Z,0.93
2022-09-28T14:59:48.261Z,0.88
2022-09-28T15:02:20.415Z,1.00
2022-09-28T15:05:10.023Z,0.77
2022-09-28T15:07:49.510Z,1.20
2022-09-28T15:10:48.644Z,0.80
2022-09-28T15:13:20.645Z,0.93
2022-09-28T15:15:51.269Z,0.70
2022-09-28T15:18:27.906Z,0.75
2022-09-28T15:20:55.655Z,0.80
2022-09-28T15:23:36.569Z,1.20
2022-09-28T15:26:08.304Z,1.50
2022-09-28T15:28:36.989Z,1.15
2022-09-28T15:31:05.145Z,1.17
2022-09-28T15:33:52.482Z,1.13
2022-09-28T15:36:28.515Z,1.48
2022-09-28T15:38:59.974Z,1.63
2022-09-28T15:41:27.562Z,1.00
2022-09-28T15:44:08.302Z,1.02
2022-09-28T15:46:39.798Z,1.00
2022-09-28T15:49:10.802Z,0.60
2022-09-28T15:51:52.671Z,0.82
2022-09-28T15:54:31.120Z,0.93
2022-09-28T15:57:02.302Z,1.33
2022-09-28T15:59:31.970Z,1.33
2022-09-28T16:02:17.584Z,1.70
2022-09-28T16:07:11.694Z,1.60
2022-09-28T16:10:06.282Z,2.00
2022-09-28T16:12:43.378Z,1.83
2022-09-28T16:15:20.472Z,3.53
2022-09-28T16:17:53.747Z,4.35
2022-09-28T16:20:32.221Z,3.00
2022-09-28T16:23:05.928Z,3.00
2022-09-28T16:25:35.661Z,14.68
2022-09-28T16:28:02.089Z,3.20
2022-09-28T16:30:32.393Z,2.05
2022-09-28T16:33:01.276Z,2.17
2022-09-28T16:35:30.510Z,2.30
2022-09-28T16:38:11.209Z,2.17
2022-09-28T16:40:43.126Z,2.63
2022-09-28T16:43:27.097Z,2.70
2022-09-28T16:45:58.709Z,2.63
2022-09-28T16:48:39.399Z,2.88
2022-09-28T16:51:05.834Z,3.65
2022-09-28T16:53:50.981Z,3.53
2022-09-28T16:56:18.428Z,3.53
2022-09-28T16:58:47.968Z,3.65
2022-09-28T17:01:14.799Z,2.92
2022-09-28T17:03:46.846Z,3.45
2022-09-28T17:06:14.202Z,3.85
2022-09-28T17:08:42.956Z,3.58
2022-09-28T17:11:17.933Z,4.22
2022-09-28T17:13:47.362Z,3.92
2022-09-28T17:16:17.773Z,3.85
2022-09-28T17:18:45.297Z,4.00
2022-09-28T17:21:18.372Z,4.32
2022-09-28T17:23:46.841Z,4.15
2022-09-28T17:26:23.120Z,5.22
2022-09-28T17:28:49.497Z,4.63
2022-09-28T17:31:17.097Z,5.28
2022-09-28T17:33:43.992Z,6.53
2022-09-28T17:36:14.980Z,6.90
2022-09-28T17:38:42.861Z,6.35
2022-09-28T17:41:20.200Z,7.05
2022-09-28T17:43:47.340Z,8.98
2022-09-28T17:46:26.915Z,10.57
2022-09-28T17:48:54.726Z,10.02
2022-09-28T17:51:22.414Z,10.20
2022-09-28T17:53:49.059Z,11.45
2022-09-28T17:56:15.784Z,11.00
2022-09-28T17:58:42.184Z,9.95
2022-09-28T18:01:09.153Z,9.93
2022-09-28T18:03:35.664Z,11.18
2022-09-28T18:06:06.489Z,10.77
2022-09-28T18:08:34.103Z,12.30
2022-09-28T18:11:01.586Z,11.00
2022-09-28T18:13:28.145Z,11.35
2022-09-28T18:15:55.974Z,12.65
2022-09-28T18:18:24.255Z,12.73
2022-09-28T18:20:51.274Z,12.13
2022-09-28T18:23:18.407Z,13.48
2022-09-28T18:25:46.080Z,12.88
2022-09-28T18:28:13.481Z,12.95
2022-09-28T18:30:42.462Z,13.98
2022-09-28T18:33:10.097Z,13.55
2022-09-28T18:35:36.625Z,14.45
2022-09-28T18:38:05.295Z,13.20
2022-09-28T18:40:33.267Z,13.20
2022-09-28T18:42:59.893Z,14.40
2022-09-28T18:45:26.479Z,12.95
2022-09-28T18:47:52.968Z,13.35
2022-09-28T18:50:19.479Z,13.73
2022-09-28T18:52:47.252Z,14.43
2022-09-28T18:55:13.950Z,13.85
2022-09-28T18:57:42.220Z,13.48
2022-09-28T19:00:11.355Z,13.05
2022-09-28T19:02:38.022Z,13.80
2022-09-28T19:05:05.656Z,13.38
2022-09-28T19:07:33.087Z,13.18
2022-09-28T19:09:59.505Z,13.90
2022-09-28T19:12:25.953Z,15.98
2022-09-28T19:14:52.817Z,13.27
2022-09-28T19:17:20.620Z,14.50
2022-09-28T19:19:47.064Z,12.73
2022-09-28T19:22:13.527Z,14.35
2022-09-28T19:24:40.340Z,13.38
2022-09-28T19:27:06.781Z,14.63
2022-09-28T19:29:33.230Z,14.07
2022-09-28T19:31:59.719Z,14.07
2022-09-28T19:34:29.830Z,13.32
2022-09-28T19:36:56.770Z,12.77
2022-09-28T19:39:23.316Z,14.90
2022-09-28T19:41:51.206Z,14.23
2022-09-28T19:44:26.012Z,13.65
2022-09-28T19:47:06.811Z,14.77
2022-09-28T19:49:38.423Z,14.52
2022-09-28T19:52:16.367Z,15.15
2022-09-28T19:54:57.305Z,14.48
2022-09-28T19:57:27.821Z,14.50
2022-09-28T20:00:00.832Z,14.63
2022-09-28T20:02:33.135Z,14.88
2022-09-28T20:04:59.567Z,14.30
2022-09-28T20:07:26.047Z,13.75
2022-09-28T20:09:52.491Z,15.27
2022-09-28T20:12:18.989Z,15.25
2022-09-28T20:14:45.444Z,16.40
2022-09-28T20:17:11.953Z,15.52
2022-09-28T20:19:38.454Z,14.32
2022-09-28T20:22:04.998Z,13.93
2022-09-28T20:24:32.114Z,13.95
2022-09-28T20:26:59.100Z,14.18
2022-09-28T20:29:26.362Z,13.13
2022-09-28T20:31:52.868Z,12.15
2022-09-28T20:34:19.364Z,14.82
2022-09-28T20:36:45.944Z,13.23
2022-09-28T20:39:12.946Z,13.68
2022-09-28T20:41:40.228Z,13.75
2022-09-28T20:44:07.201Z,13.73
2022-09-28T20:46:35.442Z,13.27
2022-09-28T20:49:02.547Z,13.80
2022-09-28T20:51:29.037Z,14.27
2022-09-28T20:53:57.727Z,13.45
2022-09-28T20:56:37.575Z,13.25
2022-09-28T20:59:07.826Z,13.10
2022-09-28T21:01:35.082Z,13.52
2022-09-28T21:04:03.756Z,13.05
2022-09-28T21:06:35.654Z,12.80
2022-09-28T21:09:02.970Z,13.20
2022-09-28T21:11:29.955Z,13.18
2022-09-28T21:14:01.585Z,13.43
2022-09-28T21:16:30.403Z,12.88
2022-09-28T21:18:57.093Z,11.68
2022-09-28T21:21:24.573Z,11.07
2022-09-28T21:23:55.735Z,11.38
2022-09-28T21:26:24.892Z,11.60
2022-09-28T21:29:06.058Z,12.48
2022-09-28T21:31:38.235Z,12.27
2022-09-28T21:34:04.867Z,10.57
2022-09-28T21:36:32.056Z,11.18
2022-09-28T21:38:58.527Z,11.52
2022-09-28T21:41:25.129Z,11.98
2022-09-28T21:43:52.273Z,11.57
2022-09-28T21:46:18.793Z,11.50
2022-09-28T21:48:45.302Z,10.50
2022-09-28T21:51:15.595Z,10.13
2022-09-28T21:53:42.659Z,11.40
2022-09-28T21:56:11.132Z,10.48
2022-09-28T21:58:37.918Z,9.45
2022-09-28T22:01:14.685Z,10.05
2022-09-28T22:03:43.827Z,9.88
2022-09-28T22:06:11.094Z,9.82
2022-09-28T22:08:38.451Z,8.80
2022-09-28T22:11:15.290Z,9.23
2022-09-28T22:13:47.642Z,9.57
2022-09-28T22:16:16.085Z,8.85
2022-09-28T22:18:43.163Z,8.43
2022-09-28T22:21:24.489Z,8.85
2022-09-28T22:23:51.518Z,8.48
2022-09-28T22:26:23.720Z,8.90
2022-09-28T22:28:58.255Z,9.10
2022-09-28T22:31:27.656Z,8.88
2022-09-28T22:33:54.292Z,9.20
2022-09-28T22:36:21.118Z,8.63
2022-09-28T22:38:48.351Z,8.52
2022-09-28T22:41:16.892Z,9.20
2022-09-28T22:43:43.744Z,10.02
2022-09-28T22:46:19.841Z,9.02
2022-09-28T22:48:52.533Z,9.52
2022-09-28T22:51:19.373Z,9.95
2022-09-28T22:53:45.906Z,10.07
2022-09-28T22:56:18.217Z,11.05
2022-09-28T22:58:46.157Z,10.07
2022-09-28T23:01:17.652Z,11.00
2022-09-28T23:03:44.759Z,11.10
2022-09-28T23:06:12.860Z,11.50
2022-09-28T23:08:39.408Z,10.55
2022-09-28T23:11:06.732Z,11.10
2022-09-28T23:13:33.255Z,11.55
2022-09-28T23:16:02.253Z,11.25
2022-09-28T23:18:31.363Z,10.90
2022-09-28T23:21:00.839Z,10.98
2022-09-28T23:23:27.670Z,11.02
2022-09-28T23:25:54.579Z,11.80
2022-09-28T23:28:22.925Z,10.88
2022-09-28T23:30:50.157Z,11.00
2022-09-28T23:33:19.011Z,10.73
2022-09-28T23:35:45.806Z,10.57
2022-09-28T23:38:17.991Z,11.65
2022-09-28T23:40:46.263Z,10.38
2022-09-28T23:43:13.338Z,11.38
2022-09-28T23:45:40.160Z,10.10
2022-09-28T23:48:06.641Z,11.95
2022-09-28T23:50:33.157Z,11.27
2022-09-28T23:52:59.596Z,10.27
2022-09-28T23:55:26.030Z,10.98
2022-09-28T23:57:55.447Z,10.43
